Time;durP1;ratioP1;P1;durP2;ratioP2;P2;SDS_P1;SDS_P2;PMS_P1;PMS_P2;Temp;Humidity;BMP_temperature;BMP_pressure;BME280_temperature;BME280_humidity;BME280_pressure;Samples;Min_cycle;Max_cycle;Signal;HPM_P1;HPM_P2
2022/09/08 00:00:39;;;;;;;9.87;7.57;;;17.20;99.90;;;;;;2586596;54;20030;31
2022/09/08 00:03:15;;;;;;;10.05;7.80;;;17.30;99.90;;;;;;2586627;54;20765;31
2022/09/08 00:05:48;;;;;;;;;;;17.30;99.90;;;;;;2605006;46;20037;31
2022/09/08 00:08:20;;;;;;;11.45;7.45;;;17.20;99.90;;;;;;2586601;54;19941;31
2022/09/08 00:10:54;;;;;;;12.25;8.55;;;17.20;99.90;;;;;;2586359;54;20912;31
2022/09/08 00:13:26;;;;;;;12.50;8.40;;;17.20;99.90;;;;;;2585582;54;20880;31
2022/09/08 00:16:02;;;;;;;9.23;7.78;;;17.10;99.90;;;;;;2604073;46;20862;31
2022/09/08 00:18:43;;;;;;;11.40;8.48;;;17.10;99.90;;;;;;2586691;54;20033;31
2022/09/08 00:21:13;;;;;;;12.02;8.55;;;17.10;99.90;;;;;;2586561;54;20026;31
2022/09/08 00:23:44;;;;;;;11.70;8.60;;;17.10;99.90;;;;;;2586467;54;20090;31
2022/09/08 00:26:17;;;;;;;10.93;8.03;;;17.00;99.90;;;;;;2605312;46;20784;31
2022/09/08 00:28:48;;;;;;;13.55;9.20;;;17.00;99.90;;;;;;2586527;54;20774;31
2022/09/08 00:31:20;;;;;;;11.63;8.10;;;17.00;99.90;;;;;;2586685;54;20772;31
2022/09/08 00:33:54;;;;;;;16.95;9.65;;;17.00;99.90;;;;;;2586495;54;20857;31
2022/09/08 00:36:27;;;;;;;10.43;8.27;;;16.90;99.90;;;;;;2604870;46;20050;31
2022/09/08 00:39:00;;;;;;;14.10;8.82;;;16.90;99.90;;;;;;2586523;54;20030;31
2022/09/08 00:41:33;;;;;;;14.68;9.40;;;16.90;99.90;;;;;;2586617;54;20924;31
2022/09/08 00:44:35;;;;;;;10.73;9.20;;;16.90;99.90;;;;;;2597189;46;20027;31
2022/09/08 00:47:09;;;;;;;10.90;9.07;;;16.80;99.90;;;;;;2586650;54;20041;31
2022/09/08 00:49:46;;;;;;;12.25;8.23;;;16.80;99.90;;;;;;2586536;54;20860;31
2022/09/08 00:52:19;;;;;;;13.00;9.43;;;16.80;99.90;;;;;;2605280;46;20872;31
2022/09/08 00:54:51;;;;;;;11.23;9.10;;;16.80;99.90;;;;;;2605202;46;20026;31
2022/09/08 00:57:23;;;;;;;11.45;8.38;;;16.80;99.90;;;;;;2586374;54;19938;31
2022/09/08 00:59:54;;;;;;;13.20;9.50;;;16.70;99.90;;;;;;2586225;54;20759;31
2022/09/08 01:02:27;;;;;;;13.33;9.20;;;16.70;99.90;;;;;;2586488;54;20038;31
2022/09/08 01:05:03;;;;;;;11.77;10.05;;;16.70;99.90;;;;;;2586255;54;20866;31
2022/09/08 01:13:32;;;;;;;12.55;9.60;;;16.60;99.90;;;;;;2605109;46;20023;31
2022/09/08 01:16:05;;;;;;;11.90;10.35;;;16.60;99.90;;;;;;2586411;54;20737;31
2022/09/08 01:18:36;;;;;;;16.65;10.27;;;16.60;99.90;;;;;;2586089;54;20035;31
2022/09/08 01:21:18;;;;;;;13.90;10.82;;;16.60;99.90;;;;;;2604928;46;20924;31
2022/09/08 01:24:09;;;;;;;15.48;10.57;;;16.60;99.90;;;;;;2604834;46;20034;31
2022/09/08 01:27:05;;;;;;;14.10;9.70;;;16.50;99.90;;;;;;2586148;54;20876;31
2022/09/08 01:29:37;;;;;;;11.60;10.30;;;16.40;99.90;;;;;;2604595;46;20965;31
2022/09/08 01:32:08;;;;;;;13.60;9.75;;;16.50;99.90;;;;;;2586381;54;20779;31
2022/09/08 01:34:41;;;;;;;15.50;10.25;;;16.50;99.90;;;;;;2586346;54;20026;31
2022/09/08 01:37:13;;;;;;;15.90;10.65;;;16.50;99.90;;;;;;2604737;46;20881;31
2022/09/08 01:39:45;;;;;;;12.70;9.95;;;16.50;99.90;;;;;;2586408;54;20053;31
2022/09/08 01:42:21;;;;;;;13.75;10.35;;;16.50;99.90;;;;;;2586453;54;21053;31
2022/09/08 01:44:53;;;;;;;13.70;10.00;;;16.40;99.90;;;;;;2586091;54;20038;31
2022/09/08 01:47:24;;;;;;;17.50;9.80;;;16.40;99.90;;;;;;2604476;46;20896;31
2022/09/08 01:49:57;;;;;;;18.13;11.30;;;16.40;99.90;;;;;;2586093;54;20058;31
2022/09/08 01:52:30;;;;;;;12.73;10.13;;;16.40;99.90;;;;;;2604568;46;20030;31
2022/09/08 01:55:03;;;;;;;13.75;10.68;;;16.40;99.90;;;;;;2604543;47;20888;31
2022/09/08 01:57:38;;;;;;;12.43;9.73;;;16.40;99.90;;;;;;2585957;54;20134;31
2022/09/08 02:00:12;;;;;;;13.93;9.93;;;16.40;99.90;;;;;;2586071;54;20099;31
2022/09/08 02:02:43;;;;;;;14.07;9.60;;;16.30;99.90;;;;;;2585936;54;20749;31
2022/09/08 02:05:14;;;;;;;15.75;10.60;;;16.20;99.90;;;;;;2586175;54;20101;31
2022/09/08 02:07:51;;;;;;;12.93;10.60;;;16.30;99.90;;;;;;2684410;39;22458;31
2022/09/08 02:10:22;;;;;;;12.80;9.60;;;16.20;99.90;;;;;;2586226;54;20862;31
2022/09/08 02:12:56;;;;;;;12.90;10.15;;;16.20;99.90;;;;;;2586013;54;20943;31
2022/09/08 02:15:29;;;;;;;12.13;9.70;;;16.20;99.90;;;;;;2604979;46;20874;31
2022/09/08 02:18:02;;;;;;;10.63;9.15;;;16.20;99.90;;;;;;2586144;54;20869;31
2022/09/08 02:20:35;;;;;;;12.75;10.98;;;16.30;99.90;;;;;;2586228;54;20908;31
2022/09/08 02:23:07;;;;;;;11.90;9.98;;;16.20;99.90;;;;;;2586202;54;20030;31
2022/09/08 02:25:39;;;;;;;12.00;10.27;;;16.20;99.90;;;;;;2586077;54;20885;31
2022/09/08 02:28:13;;;;;;;13.20;10.02;;;16.20;99.90;;;;;;2585502;54;20030;31
2022/09/08 02:30:45;;;;;;;13.20;10.02;;;16.20;99.90;;;;;;2604216;46;20698;31
2022/09/08 02:33:20;;;;;;;11.43;9.65;;;16.10;99.90;;;;;;2586144;54;20868;31
2022/09/08 02:35:53;;;;;;;14.40;10.45;;;16.10;99.90;;;;;;2586180;54;20788;31
2022/09/08 02:38:26;;;;;;;14.50;10.55;;;16.10;99.90;;;;;;2585962;54;20879;31
2022/09/08 02:40:59;;;;;;;14.00;8.75;;;16.10;99.90;;;;;;2585898;54;20117;31
2022/09/08 02:43:32;;;;;;;20.20;9.82;;;16.00;99.90;;;;;;2585998;54;20772;31
2022/09/08 02:46:08;;;;;;;17.27;9.90;;;16.00;99.90;;;;;;2585884;54;20023;31
2022/09/08 02:48:41;;;;;;;11.43;8.13;;;15.90;99.90;;;;;;2585738;54;21167;31
2022/09/08 02:51:14;;;;;;;13.73;9.97;;;16.00;99.90;;;;;;2585889;54;20026;31
2022/09/08 02:53:48;;;;;;;13.35;10.60;;;16.00;99.90;;;;;;2604551;47;20886;31
2022/09/08 02:56:18;;;;;;;14.25;8.88;;;16.00;99.90;;;;;;2586044;54;20962;31
2022/09/08 02:58:54;;;;;;;13.88;9.80;;;15.90;99.90;;;;;;2604807;47;20029;31
2022/09/08 03:01:28;;;;;;;12.43;9.43;;;15.90;99.90;;;;;;2604016;47;20026;31
2022/09/08 03:04:01;;;;;;;14.35;10.40;;;15.90;99.90;;;;;;2585577;54;20034;31
2022/09/08 03:06:34;;;;;;;15.70;9.80;;;15.90;99.90;;;;;;2604517;47;20033;31
2022/09/08 03:09:05;;;;;;;14.68;10.43;;;15.80;99.90;;;;;;2586630;54;20776;31
2022/09/08 03:11:36;;;;;;;13.73;10.33;;;15.80;99.90;;;;;;2586814;54;20027;31
2022/09/08 03:14:11;;;;;;;15.40;9.80;;;15.80;99.90;;;;;;2586546;54;20033;31
2022/09/08 03:16:45;;;;;;;13.75;9.38;;;15.90;99.90;;;;;;2586712;54;20056;31
2022/09/08 03:19:17;;;;;;;12.93;9.63;;;15.80;99.90;;;;;;2586731;54;20879;31
2022/09/08 03:21:47;;;;;;;16.05;9.55;;;15.80;99.90;;;;;;2586422;54;20026;31
2022/09/08 03:24:19;;;;;;;12.65;9.55;;;15.70;99.90;;;;;;2586538;54;20030;31
2022/09/08 03:26:52;;;;;;;12.00;9.90;;;15.80;99.90;;;;;;2586807;54;20052;31
2022/09/08 03:29:27;;;;;;;13.60;10.10;;;15.70;99.90;;;;;;2586423;54;20030;31
2022/09/08 03:31:59;;;;;;;13.32;9.65;;;15.70;99.90;;;;;;2605221;46;20032;31
2022/09/08 03:34:30;;;;;;;13.68;9.38;;;15.70;99.90;;;;;;2586539;54;19956;31
2022/09/08 03:37:02;;;;;;;14.97;9.50;;;15.60;99.90;;;;;;2586565;54;20782;31
2022/09/08 03:39:34;;;;;;;17.70;10.10;;;15.60;99.90;;;;;;2586572;54;20029;31
2022/09/08 03:42:08;;;;;;;12.40;10.30;;;15.60;99.90;;;;;;2586536;54;20242;31
2022/09/08 03:44:44;;;;;;;16.80;10.03;;;15.60;99.90;;;;;;2586350;54;20059;31
2022/09/08 03:47:17;;;;;;;15.60;9.63;;;15.50;99.90;;;;;;2605323;46;20245;31
2022/09/08 03:49:49;;;;;;;13.77;10.03;;;15.50;99.90;;;;;;2586597;54;20031;31
2022/09/08 03:52:21;;;;;;;15.23;9.93;;;15.50;99.90;;;;;;2586381;54;20023;31
2022/09/08 03:54:57;;;;;;;14.60;10.18;;;15.50;99.90;;;;;;2605192;46;20030;31
2022/09/08 03:57:30;;;;;;;17.00;10.80;;;15.50;99.90;;;;;;2586400;54;20951;31
2022/09/08 04:00:08;;;;;;;23.03;10.00;;;15.40;99.90;;;;;;2585658;54;20854;31
2022/09/08 04:02:45;;;;;;;15.17;10.47;;;15.40;99.90;;;;;;2605019;46;20022;31
2022/09/08 04:05:19;;;;;;;12.85;9.43;;;15.40;99.90;;;;;;2586330;54;20282;31
2022/09/08 04:07:53;;;;;;;12.40;10.35;;;15.40;99.90;;;;;;2605090;46;20026;31
2022/09/08 04:10:27;;;;;;;14.63;10.27;;;15.40;99.90;;;;;;2586510;54;20022;31
2022/09/08 04:12:59;;;;;;;14.45;9.95;;;15.40;99.90;;;;;;2586047;54;20056;31
2022/09/08 04:15:33;;;;;;;13.83;10.03;;;15.30;99.90;;;;;;2586643;54;20952;31
2022/09/08 04:18:06;;;;;;;12.18;9.32;;;15.40;99.90;;;;;;2586166;54;20022;31
2022/09/08 04:20:38;;;;;;;14.60;9.80;;;15.30;99.90;;;;;;2586591;54;20931;31
2022/09/08 04:23:09;;;;;;;14.53;10.50;;;15.30;99.90;;;;;;2605173;46;20879;31
2022/09/08 04:25:40;;;;;;;15.63;10.65;;;15.30;99.90;;;;;;2586460;54;20949;31
2022/09/08 04:28:12;;;;;;;15.70;10.23;;;15.30;99.90;;;;;;2605022;46;20742;31
2022/09/08 04:30:46;;;;;;;16.65;9.90;;;15.30;99.90;;;;;;2604835;46;20100;31
2022/09/08 04:33:19;;;;;;;13.20;10.20;;;15.20;99.90;;;;;;2586416;54;20930;31
2022/09/08 04:35:51;;;;;;;13.60;10.20;;;15.30;99.90;;;;;;2586348;54;20031;31
2022/09/08 04:38:43;;;;;;;15.73;10.25;;;15.20;99.90;;;;;;2586242;54;20026;31
2022/09/08 04:41:18;;;;;;;13.20;10.43;;;15.30;99.90;;;;;;2586302;54;20057;31
2022/09/08 04:43:49;;;;;;;16.67;11.05;;;15.30;99.90;;;;;;2604774;46;20053;31
2022/09/08 04:46:23;;;;;;;17.15;10.75;;;15.30;99.90;;;;;;2586241;54;20072;31
2022/09/08 04:48:56;;;;;;;17.80;9.80;;;15.20;99.90;;;;;;2586113;54;20799;31
2022/09/08 04:51:29;;;;;;;15.10;10.53;;;15.30;99.90;;;;;;2604473;46;20085;31
2022/09/08 04:54:02;;;;;;;19.60;9.95;;;15.30;99.90;;;;;;2586435;54;20026;31
2022/09/08 04:56:35;;;;;;;15.82;11.00;;;15.30;99.90;;;;;;2586177;54;20867;31
2022/09/08 04:59:07;;;;;;;13.05;9.65;;;15.30;99.90;;;;;;2604924;46;20031;31
2022/09/08 05:01:42;;;;;;;14.70;10.13;;;15.40;99.90;;;;;;2586198;54;20758;31
2022/09/08 05:04:14;;;;;;;15.75;10.55;;;15.50;99.90;;;;;;2586123;54;20793;31
2022/09/08 05:06:48;;;;;;;14.57;9.57;;;15.50;99.90;;;;;;2586490;54;20026;31
2022/09/08 05:09:19;;;;;;;17.48;11.82;;;15.60;99.90;;;;;;2586349;54;20858;31
2022/09/08 05:11:51;;;;;;;14.95;10.35;;;15.60;99.90;;;;;;2585897;54;20048;31
2022/09/08 05:14:24;;;;;;;12.80;9.80;;;15.70;99.90;;;;;;2604324;46;20052;31
2022/09/08 05:16:59;;;;;;;16.83;11.48;;;15.70;99.90;;;;;;2585995;54;20067;31
2022/09/08 05:22:00;;;;;;;14.80;10.63;;;15.80;99.90;;;;;;2586041;54;20780;31
2022/09/08 05:24:38;;;;;;;15.70;11.10;;;15.90;99.90;;;;;;2586196;54;20573;31
2022/09/08 05:27:12;;;;;;;17.85;10.90;;;15.90;99.90;;;;;;2585932;54;20065;31
2022/09/08 05:29:46;;;;;;;;;;;16.00;99.90;;;;;;2586119;54;20789;31
2022/09/08 05:32:22;;;;;;;20.60;11.05;;;16.00;99.90;;;;;;2585826;54;20769;31
2022/09/08 05:34:54;;;;;;;12.45;10.38;;;16.10;99.90;;;;;;2586171;54;20791;31
2022/09/08 05:37:30;;;;;;;18.87;11.10;;;16.20;99.90;;;;;;2604553;46;20922;31
2022/09/08 05:40:03;;;;;;;16.90;10.80;;;16.20;99.90;;;;;;2684092;39;21162;31
2022/09/08 05:42:35;;;;;;;17.08;10.80;;;16.30;99.90;;;;;;2586011;54;20061;31
2022/09/08 05:45:08;;;;;;;15.93;10.27;;;16.30;99.90;;;;;;2586038;54;20868;31
2022/09/08 05:47:44;;;;;;;16.90;11.20;;;16.40;99.90;;;;;;2586430;54;20030;31
2022/09/08 05:50:16;;;;;;;13.35;9.75;;;16.50;99.90;;;;;;2585638;54;21021;31
2022/09/08 05:52:48;;;;;;;16.35;10.40;;;16.90;99.90;;;;;;2604928;46;20053;31
2022/09/08 05:55:21;;;;;;;15.80;11.15;;;17.20;99.90;;;;;;2585810;54;20165;31
2022/09/08 05:57:55;;;;;;;12.27;9.88;;;17.60;99.90;;;;;;2586008;54;20861;31
2022/09/08 06:00:49;;;;;;;13.65;10.05;;;17.90;99.90;;;;;;2585833;54;20869;31
2022/09/08 06:03:24;;;;;;;14.50;9.20;;;18.20;99.90;;;;;;2585861;54;20026;31
2022/09/08 06:05:57;;;;;;;15.90;10.20;;;18.50;99.90;;;;;;2585927;54;20030;31
2022/09/08 06:08:30;;;;;;;17.07;9.67;;;18.70;99.90;;;;;;2586055;54;20806;31
2022/09/08 06:11:03;;;;;;;14.40;9.95;;;18.90;99.90;;;;;;2585790;54;20038;31
2022/09/08 06:13:35;;;;;;;12.47;9.00;;;19.00;99.90;;;;;;2585918;54;20832;31
2022/09/08 06:16:08;;;;;;;13.82;10.98;;;19.10;99.90;;;;;;2586003;54;20749;31
2022/09/08 06:18:45;;;;;;;16.95;9.20;;;19.30;99.90;;;;;;2603992;46;20032;31
2022/09/08 06:21:18;;;;;;;15.63;11.07;;;19.40;99.90;;;;;;2586166;54;20952;31
2022/09/08 06:23:52;;;;;;;17.85;10.20;;;19.50;99.90;;;;;;2604346;46;20049;31
2022/09/08 06:26:41;;;;;;;13.40;10.40;;;19.70;99.90;;;;;;2585765;54;20848;31
2022/09/08 06:29:16;;;;;;;14.48;10.57;;;19.70;99.90;;;;;;2585836;54;20888;31
2022/09/08 06:31:51;;;;;;;14.57;10.97;;;19.90;99.90;;;;;;2585855;54;20873;31
2022/09/08 06:34:29;;;;;;;14.45;10.40;;;19.80;99.90;;;;;;2683780;39;20540;31
2022/09/08 06:37:05;;;;;;;17.80;11.70;;;20.10;99.90;;;;;;2604198;46;20058;31
2022/09/08 06:39:46;;;;;;;19.95;11.52;;;20.30;99.90;;;;;;2585523;54;21232;31
2022/09/08 06:42:22;;;;;;;14.05;10.90;;;20.50;99.90;;;;;;2585818;54;20026;31
2022/09/08 06:44:54;;;;;;;16.33;12.10;;;20.80;99.90;;;;;;2585800;54;20904;31
2022/09/08 06:47:26;;;;;;;21.57;12.33;;;20.90;99.90;;;;;;2604529;46;20888;31
2022/09/08 06:50:03;;;;;;;16.45;11.30;;;20.90;99.90;;;;;;2585929;54;20093;31
2022/09/08 06:52:40;;;;;;;16.63;11.70;;;21.10;99.90;;;;;;2585289;54;19997;31
2022/09/08 06:55:36;;;;;;;14.73;10.87;;;21.10;99.90;;;;;;2604164;47;20034;31
2022/09/08 06:58:18;;;;;;;16.38;11.77;;;21.20;99.90;;;;;;2585746;54;20061;31
2022/09/08 07:00:51;;;;;;;13.73;10.60;;;21.40;99.90;;;;;;2585759;54;20097;31
2022/09/08 07:03:34;;;;;;;13.70;10.77;;;21.40;99.90;;;;;;2585785;54;20093;31
2022/09/08 07:06:15;;;;;;;17.00;11.40;;;21.40;99.90;;;;;;2585665;54;20038;31
2022/09/08 07:08:59;;;;;;;14.00;10.60;;;21.60;99.90;;;;;;2604470;47;21464;31
2022/09/08 07:11:56;;;;;;;13.27;10.43;;;21.70;99.90;;;;;;2585702;54;20963;31
2022/09/08 07:15:02;;;;;;;16.77;11.75;;;21.80;99.90;;;;;;2585423;54;20027;31
2022/09/08 07:20:04;;;;;;;15.35;12.30;;;21.90;99.90;;;;;;2585662;54;20939;31
2022/09/08 07:22:42;;;;;;;16.70;11.20;;;21.90;99.90;;;;;;2585779;54;20955;31
2022/09/08 07:25:14;;;;;;;14.75;10.35;;;21.90;99.90;;;;;;2585939;54;20027;31
2022/09/08 07:27:48;;;;;;;19.60;10.90;;;22.00;99.90;;;;;;2585734;54;20917;31
2022/09/08 07:30:21;;;;;;;18.48;10.95;;;22.20;99.90;;;;;;2585374;54;20834;31
2022/09/08 07:32:58;;;;;;;18.73;11.38;;;22.60;99.90;;;;;;2585611;54;21597;31
2022/09/08 07:36:04;;;;;;;13.60;10.80;;;22.80;99.90;;;;;;2585647;54;20066;31
2022/09/08 07:38:45;;;;;;;16.10;10.65;;;23.10;99.90;;;;;;2585278;54;20031;31
2022/09/08 07:41:22;;;;;;;16.33;10.40;;;23.30;99.90;;;;;;2586039;54;20097;31
2022/09/08 07:43:59;;;;;;;14.18;10.60;;;23.30;99.90;;;;;;2604321;47;20029;31
2022/09/08 07:46:55;;;;;;;14.98;11.20;;;23.40;99.90;;;;;;2585537;54;21000;31
2022/09/08 07:52:01;;;;;;;16.25;10.35;;;23.80;99.90;;;;;;2604258;47;20887;31
2022/09/08 07:54:46;;;;;;;14.27;10.40;;;24.10;99.90;;;;;;2586432;54;20112;31
2022/09/08 07:57:24;;;;;;;16.80;11.53;;;24.30;99.90;;;;;;2586439;54;20904;31
2022/09/08 08:00:15;;;;;;;11.20;8.95;;;24.30;99.90;;;;;;2604574;46;20030;31
2022/09/08 08:03:08;;;;;;;12.60;9.40;;;24.30;99.90;;;;;;2586465;54;20050;31
2022/09/08 08:05:45;;;;;;;20.10;10.50;;;24.50;99.90;;;;;;2586629;54;20913;31
2022/09/08 08:08:19;;;;;;;11.60;9.90;;;24.70;99.90;;;;;;2586536;54;20964;31
2022/09/08 08:11:00;;;;;;;11.60;9.60;;;24.80;99.90;;;;;;2604077;46;20057;31
2022/09/08 08:13:43;;;;;;;14.20;10.03;;;24.90;99.90;;;;;;2586508;54;20105;31
2022/09/08 08:16:16;;;;;;;13.70;10.60;;;25.00;99.90;;;;;;2586362;54;20027;31
2022/09/08 08:18:54;;;;;;;11.07;9.55;;;25.20;99.90;;;;;;2586519;54;20910;31
2022/09/08 08:21:27;;;;;;;14.88;9.85;;;25.40;99.90;;;;;;2604770;46;20031;31
2022/09/08 08:24:08;;;;;;;17.10;9.60;;;25.70;99.90;;;;;;2586159;54;20928;31
2022/09/08 08:26:47;;;;;;;14.00;9.65;;;25.70;99.90;;;;;;2586339;54;20927;31
2022/09/08 08:29:37;;;;;;;15.45;10.30;;;25.80;99.90;;;;;;2586339;54;20909;31
2022/09/08 08:32:14;;;;;;;12.13;9.77;;;25.90;99.90;;;;;;2604193;46;20049;31
2022/09/08 08:35:14;;;;;;;12.00;8.85;;;26.10;99.90;;;;;;2586314;54;20026;31
2022/09/08 08:37:47;;;;;;;14.88;9.60;;;26.20;99.90;;;;;;2605113;46;20871;31
2022/09/08 08:40:34;;;;;;;14.23;9.43;;;26.20;99.90;;;;;;2585660;54;21126;31
2022/09/08 08:43:32;;;;;;;11.35;8.70;;;26.30;99.90;;;;;;2604851;46;20049;31
2022/09/08 08:46:20;;;;;;;11.77;8.70;;;26.30;99.90;;;;;;2585904;54;20029;31
2022/09/08 08:49:04;;;;;;;10.57;8.82;;;26.50;99.90;;;;;;2604625;46;20245;31
2022/09/08 08:52:00;;;;;;;12.40;9.80;;;26.70;99.90;;;;;;2586354;54;20037;31
2022/09/08 08:54:40;;;;;;;11.63;8.88;;;26.90;99.90;;;;;;2586370;54;20916;31
2022/09/08 08:57:24;;;;;;;12.88;10.05;;;26.90;99.90;;;;;;2586077;54;20860;31
2022/09/08 09:00:10;;;;;;;12.82;9.48;;;27.00;99.90;;;;;;2586399;54;20156;31
2022/09/08 09:02:58;;;;;;;12.05;9.15;;;27.00;99.90;;;;;;2586167;54;20888;31
2022/09/08 09:05:31;;;;;;;13.10;8.87;;;27.10;99.90;;;;;;2604522;46;20034;31
2022/09/08 09:08:18;;;;;;;9.75;8.82;;;27.10;99.90;;;;;;2586390;54;20866;31
2022/09/08 09:11:07;;;;;;;11.65;8.20;;;27.20;99.90;;;;;;2586445;54;20736;31
2022/09/08 09:13:57;;;;;;;15.97;9.10;;;27.40;99.90;;;;;;2604865;46;20843;31
2022/09/08 09:17:07;;;;;;;12.57;9.50;;;27.50;99.90;;;;;;2585833;54;20036;31
2022/09/08 09:19:56;;;;;;;11.65;8.50;;;27.70;99.90;;;;;;2586135;54;20030;31
2022/09/08 09:22:35;;;;;;;9.97;8.50;;;27.80;99.90;;;;;;2586405;54;20915;31
2022/09/08 09:25:20;;;;;;;10.60;8.25;;;27.90;99.90;;;;;;2586384;54;20352;31
2022/09/08 09:27:55;;;;;;;11.17;8.50;;;28.00;99.90;;;;;;2605048;46;20913;31
2022/09/08 09:30:33;;;;;;;11.73;8.88;;;28.10;99.90;;;;;;2586430;54;20027;31
2022/09/08 09:33:34;;;;;;;11.00;9.10;;;28.20;99.90;;;;;;2586374;54;20031;31
2022/09/08 09:36:35;;;;;;;12.07;9.40;;;28.10;99.90;;;;;;2604819;46;20767;31
2022/09/08 09:39:32;;;;;;;11.07;8.60;;;28.00;99.90;;;;;;2586222;54;20038;31
2022/09/08 09:42:14;;;;;;;11.48;9.15;;;28.00;99.90;;;;;;2604232;46;20053;31
2022/09/08 09:44:57;;;;;;;10.63;8.82;;;28.10;99.90;;;;;;2585931;54;20035;31
2022/09/08 09:47:51;;;;;;;11.20;8.45;;;28.20;99.90;;;;;;2586111;54;20750;31
2022/09/08 09:50:23;;;;;;;12.63;8.70;;;28.20;99.90;;;;;;2586262;54;20030;31
2022/09/08 09:53:04;;;;;;;12.65;9.10;;;28.30;99.90;;;;;;2683933;39;21461;31
2022/09/08 09:56:19;;;;;;;12.02;8.57;;;28.40;99.90;;;;;;2586444;54;20030;31
2022/09/08 09:59:13;;;;;;;9.33;8.40;;;28.50;99.90;;;;;;2586274;54;20859;31
2022/09/08 10:02:09;;;;;;;11.90;9.20;;;28.60;99.90;;;;;;2586070;54;20146;31
2022/09/08 10:05:12;;;;;;;11.10;8.35;;;28.70;99.90;;;;;;2586288;54;20941;31
2022/09/08 10:08:11;;;;;;;12.27;9.68;;;28.60;99.90;;;;;;2586253;54;20026;31
2022/09/08 10:10:50;;;;;;;10.43;8.90;;;28.60;99.90;;;;;;2586136;54;20056;31
2022/09/08 10:14:02;;;;;;;11.23;7.90;;;28.70;99.90;;;;;;2604642;46;20234;31
2022/09/08 10:16:48;;;;;;;10.10;9.10;;;28.60;99.90;;;;;;2585887;54;20864;31
2022/09/08 10:19:29;;;;;;;;;;;28.50;99.90;;;;;;2586202;54;21151;31
2022/09/08 10:22:23;;;;;;;11.90;9.17;;;28.30;99.90;;;;;;2586286;54;20064;31
2022/09/08 10:25:31;;;;;;;12.68;9.40;;;28.20;99.90;;;;;;2586184;54;20238;31
2022/09/08 10:28:25;;;;;;;11.87;9.77;;;28.00;99.90;;;;;;2586138;54;20764;31
2022/09/08 10:31:23;;;;;;;11.20;10.03;;;27.90;99.90;;;;;;2586150;54;20863;31
2022/09/08 10:34:24;;;;;;;11.95;9.38;;;27.80;99.90;;;;;;2585791;54;20037;31
2022/09/08 10:37:03;;;;;;;15.30;9.80;;;27.70;99.90;;;;;;2586208;54;20924;31
2022/09/08 10:39:47;;;;;;;11.38;10.27;;;27.60;99.90;;;;;;2586195;54;20053;31
2022/09/08 10:42:47;;;;;;;12.20;9.80;;;27.40;99.90;;;;;;2586061;54;20812;31
2022/09/08 10:45:40;;;;;;;10.00;9.00;;;27.30;99.90;;;;;;2585381;54;20026;31
2022/09/08 10:48:50;;;;;;;14.30;9.30;;;27.20;99.90;;;;;;2585984;54;20755;31
2022/09/08 10:51:36;;;;;;;12.55;10.10;;;27.30;99.90;;;;;;2604350;47;20819;31
2022/09/08 10:54:35;;;;;;;11.90;10.07;;;27.30;99.90;;;;;;2604486;47;19941;31
2022/09/08 10:57:20;;;;;;;13.57;10.93;;;27.30;99.90;;;;;;2585463;54;20865;31
2022/09/08 11:00:07;;;;;;;11.90;10.70;;;27.30;99.90;;;;;;2585984;54;20032;31
2022/09/08 11:02:48;;;;;;;16.35;10.50;;;27.40;99.90;;;;;;2604201;47;20073;31
2022/09/08 11:05:45;;;;;;;10.48;9.57;;;27.30;99.90;;;;;;2586067;54;20949;31
2022/09/08 11:08:31;;;;;;;12.90;10.10;;;27.40;99.90;;;;;;2585480;54;20899;31
2022/09/08 11:11:07;;;;;;;;;;;27.40;99.90;;;;;;2586487;54;20973;31
2022/09/08 11:13:45;;;;;;;15.37;10.27;;;27.40;99.90;;;;;;2604292;47;19994;31
2022/09/08 11:16:34;;;;;;;12.30;9.40;;;27.40;99.90;;;;;;2604332;47;20057;31
2022/09/08 11:19:22;;;;;;;12.35;10.15;;;27.40;99.90;;;;;;2585857;54;20947;31
2022/09/08 11:22:23;;;;;;;12.23;10.35;;;27.30;99.90;;;;;;2604312;47;20945;31
2022/09/08 11:25:05;;;;;;;11.45;10.35;;;27.30;99.90;;;;;;2585742;54;20030;31
2022/09/08 11:27:40;;;;;;;19.67;10.60;;;27.20;99.90;;;;;;2604805;47;20790;31
2022/09/08 11:30:19;;;;;;;10.88;9.93;;;27.10;99.90;;;;;;2586478;54;20117;31
2022/09/08 11:32:59;;;;;;;12.63;10.00;;;27.10;99.90;;;;;;2586365;54;20033;31
2022/09/08 11:35:59;;;;;;;11.50;10.27;;;27.10;99.90;;;;;;2586740;54;20258;31
2022/09/08 11:38:35;;;;;;;10.45;9.45;;;27.00;99.90;;;;;;2586711;54;20753;31
2022/09/08 11:41:25;;;;;;;11.75;9.05;;;27.00;99.90;;;;;;2586460;54;20031;31
2022/09/08 11:44:30;;;;;;;12.50;10.60;;;27.00;99.90;;;;;;2586883;54;20026;31
2022/09/08 11:47:16;;;;;;;12.13;10.02;;;27.10;99.90;;;;;;2586061;54;20037;31
2022/09/08 11:50:10;;;;;;;10.77;9.67;;;27.20;99.90;;;;;;2586446;54;20112;31
2022/09/08 11:53:15;;;;;;;10.10;9.10;;;27.30;99.90;;;;;;2586594;54;20855;31
2022/09/08 11:56:43;;;;;;;11.20;9.25;;;27.40;99.90;;;;;;2586447;54;20121;31
2022/09/08 11:59:23;;;;;;;11.18;9.60;;;27.40;99.90;;;;;;2586240;54;20023;31
2022/09/08 12:02:06;;;;;;;10.85;9.75;;;27.40;99.90;;;;;;2586714;54;20030;31
2022/09/08 12:04:55;;;;;;;11.90;9.98;;;27.50;99.90;;;;;;2586396;54;20053;31
2022/09/08 12:08:13;;;;;;;10.48;9.40;;;27.60;99.90;;;;;;2586578;54;20030;31
2022/09/08 12:11:11;;;;;;;11.20;9.85;;;27.70;99.90;;;;;;2605117;46;20026;31
2022/09/08 12:13:49;;;;;;;13.05;7.88;;;27.80;99.90;;;;;;2586352;54;20983;31
2022/09/08 12:16:51;;;;;;;11.70;8.05;;;27.90;99.90;;;;;;2605082;46;20156;31
2022/09/08 12:19:47;;;;;;;10.10;7.63;;;27.90;99.90;;;;;;2586284;54;20966;31
2022/09/08 12:22:24;;;;;;;12.80;8.50;;;28.00;99.90;;;;;;2586339;54;20809;31
2022/09/08 12:25:11;;;;;;;12.33;8.30;;;28.10;99.90;;;;;;2604821;46;20022;31
2022/09/08 12:28:14;;;;;;;9.63;8.48;;;28.10;99.90;;;;;;2586533;54;20033;31
2022/09/08 12:31:00;;;;;;;10.05;7.15;;;28.10;99.90;;;;;;2586618;54;20127;31
2022/09/08 12:33:45;;;;;;;13.15;7.95;;;28.10;99.90;;;;;;2586459;54;20131;31
2022/09/08 12:36:22;;;;;;;12.43;9.00;;;28.10;99.90;;;;;;2586679;54;20031;31
2022/09/08 12:39:05;;;;;;;10.25;8.55;;;28.10;99.90;;;;;;2585694;54;20991;31
2022/09/08 12:41:59;;;;;;;10.32;8.45;;;28.00;99.90;;;;;;2586771;54;20053;31
2022/09/08 12:44:40;;;;;;;11.32;8.30;;;28.00;99.90;;;;;;2586662;54;20066;31
2022/09/08 12:47:28;;;;;;;13.20;8.00;;;27.90;99.90;;;;;;2586369;54;20836;31
2022/09/08 12:50:19;;;;;;;9.77;8.53;;;27.90;99.90;;;;;;2586700;54;20085;31
2022/09/08 12:53:11;;;;;;;11.73;8.77;;;27.80;99.90;;;;;;2586354;54;21280;31
2022/09/08 12:55:48;;;;;;;10.67;8.60;;;27.70;99.90;;;;;;2604984;46;20033;31
2022/09/08 12:58:24;;;;;;;9.70;8.52;;;27.70;99.90;;;;;;2586579;54;20077;31
2022/09/08 13:01:00;;;;;;;8.52;7.72;;;27.60;99.90;;;;;;2585845;54;20027;31
2022/09/08 13:03:41;;;;;;;18.15;8.85;;;27.50;99.90;;;;;;2586223;54;20046;31
2022/09/08 13:06:36;;;;;;;9.57;7.93;;;27.40;99.90;;;;;;2586293;54;20037;31
2022/09/08 13:09:07;;;;;;;8.98;8.07;;;27.40;99.90;;;;;;2586255;54;20104;31
2022/09/08 13:11:49;;;;;;;9.80;8.60;;;27.30;99.90;;;;;;2586523;54;20855;31
2022/09/08 13:14:26;;;;;;;13.30;8.90;;;27.30;99.90;;;;;;2586282;54;20841;31
2022/09/08 13:17:01;;;;;;;10.40;8.30;;;27.30;99.90;;;;;;2586234;54;20772;31
2022/09/08 13:19:37;;;;;;;9.33;8.30;;;27.30;99.90;;;;;;2586259;54;20825;31
2022/09/08 13:22:26;;;;;;;9.48;8.48;;;27.30;99.90;;;;;;2586084;54;20022;31
2022/09/08 13:25:01;;;;;;;10.53;8.60;;;27.30;99.90;;;;;;2604599;46;20093;31
2022/09/08 13:27:39;;;;;;;9.90;8.90;;;27.20;99.90;;;;;;2604715;46;20265;31
2022/09/08 13:30:14;;;;;;;10.40;9.40;;;27.20;99.90;;;;;;2586181;54;20113;31
2022/09/08 13:33:03;;;;;;;9.63;8.70;;;27.20;99.90;;;;;;2585742;54;20022;31
2022/09/08 13:36:11;;;;;;;11.60;9.15;;;27.10;99.90;;;;;;2586012;54;20250;31
2022/09/08 13:38:54;;;;;;;11.37;9.63;;;27.00;99.90;;;;;;2585956;54;20894;31
2022/09/08 13:41:40;;;;;;;9.95;8.65;;;26.90;99.90;;;;;;2586174;54;20728;31
2022/09/08 13:44:54;;;;;;;9.67;8.73;;;26.90;99.90;;;;;;2586115;54;20035;31
2022/09/08 13:47:39;;;;;;;12.10;8.97;;;26.90;99.90;;;;;;2585607;54;20929;31
2022/09/08 13:50:37;;;;;;;18.25;12.13;;;26.80;99.90;;;;;;2586076;54;21153;31
2022/09/08 13:53:26;;;;;;;10.60;9.50;;;26.70;99.90;;;;;;2604633;46;20026;31
2022/09/08 13:56:08;;;;;;;10.45;9.50;;;26.70;99.90;;;;;;2585715;54;20033;31
2022/09/08 13:58:40;;;;;;;9.52;8.63;;;26.60;99.90;;;;;;2585997;54;20935;31
2022/09/08 14:01:36;;;;;;;9.73;8.73;;;26.50;99.90;;;;;;2604643;46;20847;31
2022/09/08 14:04:20;;;;;;;18.80;9.85;;;26.40;99.90;;;;;;2585962;54;20026;31
2022/09/08 14:06:58;;;;;;;11.40;9.65;;;26.40;99.90;;;;;;2605057;46;20026;31